Terminal Aerodrome Forecast
Issued by NWS Twin Cities, MN

Home | Current Version | Previous Version | Graphics & Text | Print | Product List | Glossary On
Versions: 1 2 3 4 5 6 7 8 9 10 11 12 13 14 15 16 17 18 19 20 21
000
FTUS43 KMPX 260219 AAA
TAFSTC
TAF AMD
KSTC 260219Z 2602/2624 14007KT P6SM BKN050
      TEMPO 2602/2606 BKN008
     FM260600 16003KT P6SM BKN050
      TEMPO 2608/2612 4SM BR BKN012
     FM261200 23007KT P6SM SCT250=

USA.gov is the U.S. government's official web portal to all federal, state and local government web resources and services.